createdAt,value
2022-07-25T00:01:49.497Z,20.20
2022-07-25T00:04:17.838Z,20.10
2022-07-25T00:06:45.975Z,20.20
2022-07-25T00:09:12.823Z,20.20
2022-07-25T00:11:39.653Z,20.30
2022-07-25T00:14:07.385Z,20.40
2022-07-25T00:16:34.488Z,20.30
2022-07-25T00:19:01.291Z,20.10
2022-07-25T00:21:28.456Z,20.00
2022-07-25T00:23:55.138Z,19.90
2022-07-25T00:26:21.847Z,19.90
2022-07-25T00:28:48.543Z,19.90
2022-07-25T00:31:15.535Z,19.70
2022-07-25T00:33:42.386Z,19.90
2022-07-25T00:36:09.670Z,19.90
2022-07-25T00:38:36.369Z,19.70
2022-07-25T00:41:04.346Z,19.70
2022-07-25T00:43:31.545Z,19.60
2022-07-25T00:45:59.014Z,19.90
2022-07-25T00:48:27.777Z,19.80
2022-07-25T00:50:58.593Z,19.80
2022-07-25T00:53:25.811Z,19.60
2022-07-25T00:55:53.078Z,19.60
2022-07-25T00:58:19.807Z,19.50
2022-07-25T01:00:47.376Z,19.70
2022-07-25T01:03:14.298Z,19.50
2022-07-25T01:05:41.153Z,19.40
2022-07-25T01:08:08.868Z,19.60
2022-07-25T01:10:36.427Z,19.60
2022-07-25T01:13:03.327Z,19.70
2022-07-25T01:15:30.150Z,19.50
2022-07-25T01:17:57.145Z,19.40
2022-07-25T01:20:26.872Z,19.40
2022-07-25T01:22:54.019Z,19.30
2022-07-25T01:25:21.258Z,19.30
2022-07-25T01:27:52.941Z,19.20
2022-07-25T01:30:23.153Z,19.20
2022-07-25T01:32:49.871Z,19.20
2022-07-25T01:35:16.637Z,19.10
2022-07-25T01:37:45.526Z,19.10
2022-07-25T01:40:14.465Z,19.10
2022-07-25T01:42:42.090Z,19.30
2022-07-25T01:45:09.678Z,19.10
2022-07-25T01:47:36.432Z,19.00
2022-07-25T01:50:04.480Z,18.80
2022-07-25T01:52:31.280Z,19.00
2022-07-25T01:54:58.019Z,18.90
2022-07-25T01:57:26.593Z,19.00
2022-07-25T01:59:58.396Z,19.20
2022-07-25T02:02:25.659Z,19.00
2022-07-25T02:04:52.478Z,19.10
2022-07-25T02:07:19.252Z,18.90
2022-07-25T02:09:45.971Z,18.80
2022-07-25T02:12:12.738Z,18.80
2022-07-25T02:14:39.592Z,18.80
2022-07-25T02:17:06.517Z,18.80
2022-07-25T02:19:33.267Z,18.90
2022-07-25T02:22:00.290Z,18.80
2022-07-25T02:24:27.016Z,18.80
2022-07-25T02:26:53.843Z,18.80
2022-07-25T02:29:21.900Z,18.80
2022-07-25T02:31:49.401Z,18.70
2022-07-25T02:34:16.082Z,18.70
2022-07-25T02:36:43.187Z,18.70
2022-07-25T02:39:09.936Z,18.70
2022-07-25T02:41:36.757Z,18.70
2022-07-25T02:44:04.492Z,18.50
2022-07-25T02:46:31.499Z,18.60
2022-07-25T02:48:59.039Z,18.60
2022-07-25T02:51:25.880Z,18.60
2022-07-25T02:53:57.801Z,18.50
2022-07-25T02:56:25.952Z,18.30
2022-07-25T02:58:56.352Z,18.30
2022-07-25T03:01:23.067Z,18.50
2022-07-25T03:03:49.880Z,18.50
2022-07-25T03:06:16.748Z,18.50
2022-07-25T03:08:43.473Z,18.40
2022-07-25T03:11:10.930Z,18.40
2022-07-25T03:13:37.593Z,18.40
2022-07-25T03:16:04.590Z,18.50
2022-07-25T03:18:31.352Z,18.50
2022-07-25T03:20:58.046Z,18.40
2022-07-25T03:23:27.223Z,18.30
2022-07-25T03:25:54.705Z,18.30
2022-07-25T03:28:21.400Z,18.30
2022-07-25T03:30:48.102Z,18.20
2022-07-25T03:33:14.749Z,18.20
2022-07-25T03:35:41.570Z,18.20
2022-07-25T03:38:08.346Z,18.10
2022-07-25T03:40:36.464Z,18.10
2022-07-25T03:43:03.291Z,18.20
2022-07-25T03:45:30.152Z,18.10
2022-07-25T03:47:56.883Z,18.00
2022-07-25T03:50:23.615Z,18.00
2022-07-25T03:52:50.319Z,17.90
2022-07-25T03:55:17.088Z,17.80
2022-07-25T03:57:43.815Z,17.80
2022-07-25T04:00:12.506Z,17.70
2022-07-25T04:02:39.604Z,17.70
2022-07-25T04:05:08.443Z,17.70
2022-07-25T04:07:35.920Z,17.80
2022-07-25T04:10:04.584Z,17.80
2022-07-25T04:12:31.379Z,17.80
2022-07-25T04:14:58.343Z,17.70
2022-07-25T04:17:25.885Z,17.70
2022-07-25T04:19:52.855Z,17.70
2022-07-25T04:22:19.596Z,17.80
2022-07-25T04:24:46.354Z,17.80
2022-07-25T04:27:13.036Z,17.80
2022-07-25T04:29:39.776Z,17.90
2022-07-25T04:32:06.886Z,17.90
2022-07-25T04:34:33.642Z,18.00
2022-07-25T04:37:00.489Z,18.00
2022-07-25T04:39:27.145Z,18.00
2022-07-25T04:41:53.838Z,18.00
2022-07-25T04:44:20.508Z,18.10
2022-07-25T04:46:47.205Z,18.20
2022-07-25T04:49:13.966Z,18.40
2022-07-25T04:51:40.701Z,18.40
2022-07-25T04:54:07.677Z,18.40
2022-07-25T04:56:34.781Z,18.50
2022-07-25T04:59:06.260Z,18.40
2022-07-25T05:01:34.707Z,18.50
2022-07-25T05:04:01.589Z,18.50
2022-07-25T05:06:28.313Z,18.50
2022-07-25T05:08:55.466Z,18.60
2022-07-25T05:11:22.419Z,18.70
2022-07-25T05:13:49.224Z,18.70
2022-07-25T05:16:16.032Z,18.80
2022-07-25T05:18:42.855Z,18.80
2022-07-25T05:21:13.059Z,18.50
2022-07-25T05:23:40.987Z,18.60
2022-07-25T05:26:07.844Z,18.70
2022-07-25T05:28:34.563Z,18.90
2022-07-25T05:31:01.375Z,19.00
2022-07-25T05:33:28.167Z,19.00
2022-07-25T05:35:54.827Z,19.10
2022-07-25T05:38:21.540Z,19.10
2022-07-25T05:40:49.025Z,19.20
2022-07-25T05:43:15.705Z,19.20
2022-07-25T05:45:42.528Z,19.30
2022-07-25T05:48:09.226Z,19.40
2022-07-25T05:50:38.721Z,19.40
2022-07-25T05:53:05.421Z,19.50
2022-07-25T05:55:32.414Z,19.60
2022-07-25T05:57:59.351Z,19.60
2022-07-25T06:00:26.310Z,19.60
2022-07-25T06:02:53.262Z,19.70
2022-07-25T06:05:20.003Z,19.70
2022-07-25T06:07:46.755Z,19.80
2022-07-25T06:10:13.436Z,19.90
2022-07-25T06:12:40.153Z,20.00
2022-07-25T06:15:07.531Z,20.00
2022-07-25T06:17:39.391Z,20.20
2022-07-25T06:20:06.521Z,20.20
2022-07-25T06:22:33.287Z,20.40
2022-07-25T06:25:02.227Z,20.50
2022-07-25T06:27:29.537Z,20.60
2022-07-25T06:29:56.510Z,20.70
2022-07-25T06:32:23.231Z,20.90
2022-07-25T06:34:49.980Z,21.00
2022-07-25T06:37:16.670Z,21.00
2022-07-25T06:39:45.835Z,21.10
2022-07-25T06:42:12.922Z,21.20
2022-07-25T06:44:39.718Z,21.50
2022-07-25T06:47:10.528Z,21.60
2022-07-25T06:49:37.307Z,21.80
2022-07-25T06:52:04.446Z,21.90
2022-07-25T06:54:31.137Z,22.00
2022-07-25T06:56:57.890Z,22.20
2022-07-25T06:59:24.690Z,22.50
2022-07-25T07:01:51.914Z,22.60
2022-07-25T07:04:18.777Z,22.50
2022-07-25T07:06:45.473Z,22.60
2022-07-25T07:09:12.248Z,22.90
2022-07-25T07:11:38.891Z,22.80
2022-07-25T07:14:05.887Z,22.80
2022-07-25T07:16:33.189Z,23.00
2022-07-25T07:19:00.060Z,23.10
2022-07-25T07:21:26.739Z,23.70
2022-07-25T07:23:53.877Z,23.70
2022-07-25T07:26:21.401Z,23.80
2022-07-25T07:28:48.174Z,24.20
2022-07-25T07:31:18.336Z,24.40
2022-07-25T07:33:45.677Z,24.30
2022-07-25T07:36:12.548Z,24.30
2022-07-25T07:38:39.915Z,24.80
2022-07-25T07:41:06.660Z,24.90
2022-07-25T07:43:33.393Z,25.20
2022-07-25T07:46:01.315Z,25.00
2022-07-25T07:48:29.729Z,25.20
2022-07-25T07:50:56.765Z,25.50
2022-07-25T07:53:43.496Z,25.60
2022-07-25T07:56:10.317Z,25.60
2022-07-25T07:58:37.018Z,25.70
2022-07-25T08:01:04.542Z,26.00
2022-07-25T08:03:31.518Z,26.00
2022-07-25T08:05:58.348Z,26.10
2022-07-25T08:08:30.936Z,26.20
2022-07-25T08:10:59.267Z,26.30
2022-07-25T08:13:29.085Z,26.40
2022-07-25T08:15:59.534Z,26.70
2022-07-25T08:18:29.803Z,26.60
2022-07-25T08:20:56.949Z,26.90
2022-07-25T08:23:25.379Z,27.00
2022-07-25T08:25:52.264Z,27.20
2022-07-25T08:28:19.709Z,27.20
2022-07-25T08:30:47.744Z,27.50
2022-07-25T08:33:18.296Z,27.60
2022-07-25T08:35:54.481Z,27.60
2022-07-25T08:38:22.190Z,27.90
2022-07-25T08:40:48.969Z,27.90
2022-07-25T08:43:16.873Z,27.90
2022-07-25T08:45:49.785Z,28.00
2022-07-25T08:48:25.964Z,28.10
2022-07-25T08:50:53.987Z,28.20
2022-07-25T08:53:36.893Z,28.10
2022-07-25T08:56:11.526Z,28.30
2022-07-25T08:58:40.884Z,28.40
2022-07-25T09:01:08.156Z,28.50
2022-07-25T09:03:36.274Z,28.60
2022-07-25T09:06:17.460Z,28.90
2022-07-25T09:08:54.514Z,29.10
2022-07-25T09:11:32.625Z,29.10
2022-07-25T09:14:05.899Z,29.40
2022-07-25T09:16:37.385Z,29.40
2022-07-25T09:19:17.604Z,29.60
2022-07-25T09:21:46.091Z,29.70
2022-07-25T09:24:17.991Z,29.70
2022-07-25T09:26:50.229Z,29.80
2022-07-25T09:29:23.980Z,29.90
2022-07-25T09:31:52.293Z,29.80
2022-07-25T09:34:37.742Z,30.00
2022-07-25T09:37:06.367Z,30.00
2022-07-25T09:39:48.476Z,30.10
2022-07-25T09:42:25.531Z,30.20
2022-07-25T09:45:04.269Z,30.30
2022-07-25T09:47:32.697Z,30.40
2022-07-25T09:49:59.593Z,30.40
2022-07-25T09:52:26.313Z,30.50
2022-07-25T09:54:54.825Z,30.70
2022-07-25T09:57:24.137Z,30.90
2022-07-25T09:59:50.886Z,31.00
2022-07-25T10:02:45.201Z,30.90
2022-07-25T10:05:32.287Z,31.00
2022-07-25T10:07:59.760Z,31.20
2022-07-25T10:10:32.414Z,31.30
2022-07-25T10:13:10.249Z,31.40
2022-07-25T10:15:43.756Z,31.50
2022-07-25T10:18:10.529Z,31.40
2022-07-25T10:20:37.781Z,31.50
2022-07-25T10:23:34.764Z,31.60
2022-07-25T10:26:09.798Z,31.60
2022-07-25T10:28:42.590Z,31.90
2022-07-25T10:31:22.103Z,32.00
2022-07-25T10:33:55.688Z,32.20
2022-07-25T10:36:23.770Z,32.10
2022-07-25T10:38:57.768Z,32.00
2022-07-25T10:41:28.846Z,32.10
2022-07-25T10:44:01.485Z,32.30
2022-07-25T10:46:30.936Z,32.50
2022-07-25T10:49:04.037Z,32.40
2022-07-25T10:51:41.681Z,32.50
2022-07-25T10:54:16.504Z,32.70
2022-07-25T10:56:57.852Z,32.80
2022-07-25T10:59:29.015Z,32.70
2022-07-25T11:01:56.130Z,32.90
2022-07-25T11:04:23.884Z,33.30
2022-07-25T11:06:50.692Z,33.50
2022-07-25T11:09:27.172Z,33.50
2022-07-25T11:11:57.436Z,33.50
2022-07-25T11:14:38.121Z,33.30
2022-07-25T11:17:13.221Z,33.50
2022-07-25T11:19:40.920Z,33.50
2022-07-25T11:22:08.507Z,33.70
2022-07-25T11:24:44.241Z,33.70
2022-07-25T11:27:22.713Z,33.60
2022-07-25T11:29:49.877Z,33.80
2022-07-25T11:32:16.955Z,34.10
2022-07-25T11:34:53.302Z,34.20
2022-07-25T11:37:20.879Z,34.40
2022-07-25T11:39:48.244Z,34.40
2022-07-25T11:42:19.397Z,34.20
2022-07-25T11:44:51.410Z,34.10
2022-07-25T11:47:28.150Z,34.00
2022-07-25T11:49:56.754Z,34.00
2022-07-25T11:52:36.006Z,34.00
2022-07-25T11:55:11.514Z,33.90
2022-07-25T11:57:46.641Z,34.10
2022-07-25T12:00:19.391Z,34.30
2022-07-25T12:02:47.952Z,34.40
2022-07-25T12:05:17.574Z,34.60
2022-07-25T12:07:53.050Z,34.70
2022-07-25T12:10:19.690Z,34.90
2022-07-25T12:12:53.355Z,35.00
2022-07-25T12:15:29.654Z,35.30
2022-07-25T12:17:58.156Z,35.20
2022-07-25T12:20:31.283Z,35.10
2022-07-25T12:23:07.438Z,34.90
2022-07-25T12:25:37.083Z,35.00
2022-07-25T12:28:04.293Z,34.60
2022-07-25T12:30:31.851Z,34.70
2022-07-25T12:33:00.219Z,34.80
2022-07-25T12:35:27.876Z,35.10
2022-07-25T12:37:55.563Z,34.90
2022-07-25T12:40:22.767Z,35.20
2022-07-25T12:42:50.069Z,35.30
2022-07-25T12:45:17.890Z,35.10
2022-07-25T12:47:46.399Z,34.90
2022-07-25T12:50:14.564Z,34.80
2022-07-25T12:52:42.598Z,34.50
2022-07-25T12:55:12.450Z,34.60
2022-07-25T12:57:39.527Z,34.60
2022-07-25T13:00:09.259Z,34.40
2022-07-25T13:02:36.193Z,34.30
2022-07-25T13:05:02.981Z,34.30
2022-07-25T13:07:29.773Z,34.40
2022-07-25T13:09:56.475Z,34.40
2022-07-25T13:12:24.096Z,34.50
2022-07-25T13:14:51.717Z,34.70
2022-07-25T13:17:21.343Z,35.00
2022-07-25T13:19:50.285Z,35.30
2022-07-25T13:22:16.995Z,35.20
2022-07-25T13:24:43.836Z,35.30
2022-07-25T13:27:10.598Z,35.40
2022-07-25T13:29:37.287Z,35.40
2022-07-25T13:32:04.214Z,35.30
2022-07-25T13:34:30.961Z,35.10
2022-07-25T13:36:58.366Z,35.10
2022-07-25T13:39:25.042Z,35.20
2022-07-25T13:41:51.774Z,35.00
2022-07-25T13:44:18.817Z,34.80
2022-07-25T13:46:49.845Z,34.60
2022-07-25T13:49:18.168Z,34.60
2022-07-25T13:51:45.568Z,34.50
2022-07-25T13:54:12.941Z,34.20
2022-07-25T13:56:41.384Z,34.20
2022-07-25T13:59:08.848Z,34.30
2022-07-25T14:01:35.953Z,34.60
2022-07-25T14:04:02.712Z,34.70
2022-07-25T14:06:29.537Z,34.90
2022-07-25T14:08:56.278Z,34.40
2022-07-25T14:11:26.020Z,34.50
2022-07-25T14:13:56.939Z,34.50
2022-07-25T14:16:23.599Z,34.40
2022-07-25T14:18:50.814Z,34.20
2022-07-25T14:21:17.509Z,34.10
2022-07-25T14:23:44.229Z,34.10
2022-07-25T14:26:10.905Z,34.00
2022-07-25T14:28:37.572Z,33.90
2022-07-25T14:31:04.463Z,33.90
2022-07-25T14:33:31.286Z,33.80
2022-07-25T14:35:58.941Z,33.70
2022-07-25T14:38:25.659Z,33.70
2022-07-25T14:40:52.346Z,33.60
2022-07-25T14:43:19.053Z,33.50
2022-07-25T14:45:45.739Z,33.60
2022-07-25T14:48:12.426Z,33.60
2022-07-25T14:50:39.112Z,33.80
2022-07-25T14:53:05.801Z,33.80
2022-07-25T14:55:32.526Z,33.40
2022-07-25T14:58:02.404Z,33.60
2022-07-25T15:00:29.762Z,33.80
2022-07-25T15:02:56.962Z,34.10
2022-07-25T15:05:23.867Z,34.10
2022-07-25T15:07:50.951Z,33.80
2022-07-25T15:10:17.679Z,33.80
2022-07-25T15:12:44.330Z,33.60
2022-07-25T15:15:11.536Z,33.60
2022-07-25T15:17:39.735Z,33.60
2022-07-25T15:20:07.223Z,33.50
2022-07-25T15:22:33.895Z,33.40
2022-07-25T15:27:47.381Z,33.20
2022-07-25T15:30:14.133Z,33.30
2022-07-25T15:32:40.811Z,33.20
2022-07-25T15:35:09.429Z,33.30
2022-07-25T15:37:36.170Z,33.50
2022-07-25T15:40:03.933Z,33.70
2022-07-25T15:42:32.082Z,33.70
2022-07-25T15:45:30.218Z,33.80
2022-07-25T15:47:50.689Z,33.80
2022-07-25T15:50:18.766Z,33.60
2022-07-25T15:52:45.809Z,33.50
2022-07-25T15:55:12.721Z,33.50
2022-07-25T15:57:39.480Z,33.50
2022-07-25T16:00:08.578Z,33.40
2022-07-25T16:02:35.899Z,33.30
2022-07-25T16:05:03.988Z,33.30
2022-07-25T16:07:30.796Z,33.30
2022-07-25T16:09:57.567Z,33.20
2022-07-25T16:12:28.452Z,33.10
2022-07-25T16:14:55.927Z,33.20
2022-07-25T16:17:23.116Z,33.30
2022-07-25T16:19:49.982Z,33.30
2022-07-25T16:22:16.943Z,33.30
2022-07-25T16:24:43.685Z,33.40
2022-07-25T16:27:10.515Z,33.30
2022-07-25T16:29:37.629Z,33.20
2022-07-25T16:32:05.518Z,33.30
2022-07-25T16:34:32.869Z,33.30
2022-07-25T16:37:00.387Z,33.40
2022-07-25T16:39:27.288Z,33.40
2022-07-25T16:41:54.192Z,33.50
2022-07-25T16:44:23.643Z,33.10
2022-07-25T16:46:50.952Z,33.20
2022-07-25T16:49:18.578Z,33.10
2022-07-25T16:51:45.996Z,33.20
2022-07-25T16:54:12.807Z,32.90
2022-07-25T16:56:40.520Z,32.70
2022-07-25T16:59:08.182Z,32.60
2022-07-25T17:01:36.250Z,32.50
2022-07-25T17:04:03.816Z,32.40
2022-07-25T17:06:30.826Z,32.40
2022-07-25T17:08:58.610Z,32.40
2022-07-25T17:11:25.503Z,32.30
2022-07-25T17:13:52.150Z,32.20
2022-07-25T17:16:18.961Z,32.20
2022-07-25T17:18:45.713Z,32.20
2022-07-25T17:21:15.208Z,32.20
2022-07-25T17:23:42.005Z,32.10
2022-07-25T17:26:08.796Z,32.20
2022-07-25T17:28:35.923Z,31.70
2022-07-25T17:31:02.689Z,31.80
2022-07-25T17:33:29.409Z,31.70
2022-07-25T17:35:56.272Z,31.40
2022-07-25T17:38:26.944Z,31.20
2022-07-25T17:40:55.195Z,31.10
2022-07-25T17:43:21.894Z,30.90
2022-07-25T17:45:48.647Z,30.70
2022-07-25T17:48:15.829Z,30.50
2022-07-25T17:50:42.670Z,30.40
2022-07-25T17:53:09.318Z,30.20
2022-07-25T17:55:38.939Z,30.00
2022-07-25T17:58:06.077Z,29.90
2022-07-25T18:00:32.796Z,29.80
2022-07-25T18:02:59.575Z,29.70
2022-07-25T18:05:26.723Z,29.80
2022-07-25T18:07:53.967Z,29.60
2022-07-25T18:10:23.747Z,29.50
2022-07-25T18:12:50.688Z,29.40
2022-07-25T18:15:17.517Z,29.40
2022-07-25T18:17:45.669Z,29.30
2022-07-25T18:20:13.488Z,29.40
2022-07-25T18:22:41.240Z,29.50
2022-07-25T18:25:12.924Z,29.50
2022-07-25T18:27:45.038Z,29.40
2022-07-25T18:30:13.029Z,29.30
2022-07-25T18:32:40.939Z,29.30
2022-07-25T18:35:08.073Z,29.30
2022-07-25T18:37:35.390Z,29.30
2022-07-25T18:40:02.265Z,29.20
2022-07-25T18:42:30.059Z,29.10
2022-07-25T18:44:57.207Z,29.00
2022-07-25T18:47:27.903Z,28.90
2022-07-25T18:49:59.138Z,28.90
2022-07-25T18:52:25.841Z,28.80
2022-07-25T18:54:52.551Z,28.80
2022-07-25T18:57:19.478Z,28.70
2022-07-25T18:59:46.308Z,28.70
2022-07-25T19:02:13.073Z,28.60
2022-07-25T19:04:39.807Z,28.60
2022-07-25T19:07:07.445Z,28.50
2022-07-25T19:09:34.169Z,28.50
2022-07-25T19:12:01.232Z,28.40
2022-07-25T19:14:28.793Z,28.30
2022-07-25T19:16:55.579Z,28.20
2022-07-25T19:19:22.285Z,28.20
2022-07-25T19:21:49.124Z,28.20
2022-07-25T19:24:16.270Z,28.30
2022-07-25T19:26:43.044Z,28.10
2022-07-25T19:29:16.396Z,28.20
2022-07-25T19:31:43.412Z,28.10
2022-07-25T19:34:11.062Z,28.10
2022-07-25T19:36:38.269Z,28.10
2022-07-25T19:39:06.147Z,28.00
2022-07-25T19:41:33.262Z,27.80
2022-07-25T19:43:59.921Z,27.90
2022-07-25T19:46:31.070Z,27.80
2022-07-25T19:48:58.107Z,27.80
2022-07-25T19:51:25.789Z,27.70
2022-07-25T19:53:52.662Z,27.60
2022-07-25T19:56:20.145Z,27.50
2022-07-25T19:58:46.888Z,27.50
2022-07-25T20:01:14.056Z,27.50
2022-07-25T20:03:41.586Z,27.40
2022-07-25T20:06:08.997Z,27.40
2022-07-25T20:08:37.153Z,27.40
2022-07-25T20:11:03.929Z,27.30
2022-07-25T20:13:30.713Z,27.30
2022-07-25T20:15:58.594Z,27.30
2022-07-25T20:18:25.614Z,27.20
2022-07-25T20:20:52.810Z,27.20
2022-07-25T20:23:19.629Z,27.20
2022-07-25T20:25:46.327Z,27.20
2022-07-25T20:28:13.614Z,27.10
2022-07-25T20:30:40.405Z,27.10
2022-07-25T20:33:09.407Z,27.00
2022-07-25T20:35:37.964Z,27.00
2022-07-25T20:38:09.208Z,27.00
2022-07-25T20:40:46.362Z,27.00
2022-07-25T20:43:16.067Z,26.90
2022-07-25T20:45:43.047Z,26.90
2022-07-25T20:48:09.947Z,26.90
2022-07-25T20:50:37.895Z,26.90
2022-07-25T20:53:06.116Z,26.80
2022-07-25T20:55:33.617Z,26.80
2022-07-25T20:58:00.873Z,26.60
2022-07-25T21:00:28.843Z,26.50
2022-07-25T21:02:56.106Z,26.40
2022-07-25T21:05:23.615Z,26.20
2022-07-25T21:07:50.481Z,26.10
2022-07-25T21:10:17.440Z,26.00
2022-07-25T21:12:45.347Z,25.90
2022-07-25T21:15:12.929Z,25.90
2022-07-25T21:17:39.847Z,25.80
2022-07-25T21:20:08.866Z,25.70
2022-07-25T21:22:36.018Z,25.80
2022-07-25T21:25:02.814Z,25.70
2022-07-25T21:27:29.560Z,25.70
2022-07-25T21:29:56.372Z,25.60
2022-07-25T21:32:23.504Z,25.60
2022-07-25T21:34:50.423Z,25.50
2022-07-25T21:37:17.204Z,25.40
2022-07-25T21:39:44.211Z,25.40
2022-07-25T21:42:11.695Z,25.20
2022-07-25T21:44:43.525Z,25.20
2022-07-25T21:47:11.187Z,25.20
2022-07-25T21:49:57.015Z,25.20
2022-07-25T21:52:30.042Z,25.20
2022-07-25T21:55:03.468Z,25.20
2022-07-25T21:57:30.587Z,25.20
2022-07-25T21:59:57.319Z,25.20
2022-07-25T22:02:24.007Z,25.10
2022-07-25T22:04:50.876Z,25.10
2022-07-25T22:07:17.933Z,24.90
2022-07-25T22:09:45.511Z,24.90
2022-07-25T22:12:12.249Z,24.90
2022-07-25T22:14:38.987Z,24.90
2022-07-25T22:17:05.966Z,24.90
2022-07-25T22:19:33.288Z,24.90
2022-07-25T22:22:00.512Z,24.90
2022-07-25T22:24:27.445Z,24.80
2022-07-25T22:26:54.311Z,24.80
2022-07-25T22:29:21.384Z,24.70
2022-07-25T22:31:48.707Z,24.60
2022-07-25T22:34:15.571Z,24.60
2022-07-25T22:36:42.643Z,24.60
2022-07-25T22:39:10.260Z,24.50
2022-07-25T22:41:38.254Z,24.40
2022-07-25T22:44:05.271Z,24.30
2022-07-25T22:46:32.223Z,24.20
2022-07-25T22:48:59.354Z,24.20
2022-07-25T22:51:26.835Z,24.20
2022-07-25T22:53:53.751Z,24.20
2022-07-25T22:56:21.230Z,24.20
2022-07-25T22:58:49.155Z,24.00
2022-07-25T23:01:16.894Z,23.90
2022-07-25T23:03:43.684Z,23.80
2022-07-25T23:06:10.707Z,23.60
2022-07-25T23:08:37.414Z,23.60
2022-07-25T23:11:06.105Z,23.50
2022-07-25T23:13:33.821Z,23.50
2022-07-25T23:16:00.847Z,23.30
2022-07-25T23:18:30.062Z,23.10
2022-07-25T23:20:56.863Z,23.10
2022-07-25T23:23:23.690Z,23.20
2022-07-25T23:25:50.393Z,23.10
2022-07-25T23:28:17.057Z,23.20
2022-07-25T23:30:43.807Z,23.30
2022-07-25T23:33:10.506Z,23.50
2022-07-25T23:35:37.887Z,23.40
2022-07-25T23:38:04.733Z,23.30
2022-07-25T23:40:31.447Z,23.20
2022-07-25T23:42:58.167Z,23.30
2022-07-25T23:45:26.980Z,23.50
2022-07-25T23:47:55.531Z,23.50
2022-07-25T23:50:23.056Z,23.30
2022-07-25T23:52:50.082Z,23.00
2022-07-25T23:55:16.807Z,22.90
2022-07-25T23:57:43.652Z,23.00
